sensor_id;sensor_type;location;lat;lon;timestamp;pressure;altitude;pressure_sealevel;temperature;humidity
19114;BME280;9689;51.052;13.772;2023-12-20T00:02:07;99912.28;;;5.72;94.94
19114;BME280;9689;51.052;13.772;2023-12-20T00:07:09;99930.44;;;5.67;94.03
19114;BME280;9689;51.052;13.772;2023-12-20T00:12:10;99918.44;;;5.57;94.63
19114;BME280;9689;51.052;13.772;2023-12-20T00:17:11;99916.72;;;5.58;93.56
19114;BME280;9689;51.052;13.772;2023-12-20T00:22:13;99905.56;;;5.50;93.70
19114;BME280;9689;51.052;13.772;2023-12-20T00:27:14;99897.81;;;5.47;94.51
19114;BME280;9689;51.052;13.772;2023-12-20T00:32:15;99902.16;;;5.43;93.09
19114;BME280;9689;51.052;13.772;2023-12-20T00:37:17;99907.31;;;5.38;92.60
19114;BME280;9689;51.052;13.772;2023-12-20T00:42:18;99918.56;;;5.34;92.12
19114;BME280;9689;51.052;13.772;2023-12-20T00:47:19;99901.38;;;5.30;92.48
19114;BME280;9689;51.052;13.772;2023-12-20T00:52:21;99897.94;;;5.24;93.32
19114;BME280;9689;51.052;13.772;2023-12-20T00:57:22;99891.06;;;5.24;92.26
19114;BME280;9689;51.052;13.772;2023-12-20T01:02:23;99885.06;;;5.18;91.70
19114;BME280;9689;51.052;13.772;2023-12-20T01:07:25;99872.16;;;5.18;92.42
19114;BME280;9689;51.052;13.772;2023-12-20T01:12:26;99877.34;;;5.11;92.25
19114;BME280;9689;51.052;13.772;2023-12-20T01:17:26;99861.91;;;5.04;92.47
19114;BME280;9689;51.052;13.772;2023-12-20T01:22:28;99861.03;;;5.02;93.28
19114;BME280;9689;51.052;13.772;2023-12-20T01:27:29;99856.72;;;5.02;92.64
19114;BME280;9689;51.052;13.772;2023-12-20T01:32:30;99851.56;;;4.99;93.16
19114;BME280;9689;51.052;13.772;2023-12-20T01:37:32;99849.03;;;4.96;93.20
19114;BME280;9689;51.052;13.772;2023-12-20T01:42:33;99856.75;;;4.95;92.94
19114;BME280;9689;51.052;13.772;2023-12-20T01:47:35;99842.97;;;4.94;92.43
19114;BME280;9689;51.052;13.772;2023-12-20T01:52:38;99853.34;;;4.91;93.21
19114;BME280;9689;51.052;13.772;2023-12-20T01:57:39;99845.63;;;4.83;94.17
19114;BME280;9689;51.052;13.772;2023-12-20T02:02:40;99849.03;;;4.92;92.37
19114;BME280;9689;51.052;13.772;2023-12-20T02:07:42;99849.91;;;4.89;93.43
19114;BME280;9689;51.052;13.772;2023-12-20T02:12:43;99831.81;;;4.86;92.10
19114;BME280;9689;51.052;13.772;2023-12-20T02:17:45;99829.28;;;4.81;93.08
19114;BME280;9689;51.052;13.772;2023-12-20T02:22:48;99831.03;;;4.78;92.31
19114;BME280;9689;51.052;13.772;2023-12-20T02:27:49;99827.59;;;4.74;92.84
19114;BME280;9689;51.052;13.772;2023-12-20T02:32:51;99825.88;;;4.75;93.30
19114;BME280;9689;51.052;13.772;2023-12-20T02:37:54;99825.84;;;4.76;92.57
19114;BME280;9689;51.052;13.772;2023-12-20T02:42:55;99811.25;;;4.72;92.76
19114;BME280;9689;51.052;13.772;2023-12-20T02:47:55;99806.06;;;4.75;93.09
19114;BME280;9689;51.052;13.772;2023-12-20T02:52:58;99807.81;;;4.78;92.73
19114;BME280;9689;51.052;13.772;2023-12-20T02:57:58;99808.66;;;4.75;91.42
19114;BME280;9689;51.052;13.772;2023-12-20T03:02:59;99814.72;;;4.71;91.60
19114;BME280;9689;51.052;13.772;2023-12-20T03:08:01;99806.97;;;4.68;92.87
19114;BME280;9689;51.052;13.772;2023-12-20T03:13:02;99803.53;;;4.68;91.91
19114;BME280;9689;51.052;13.772;2023-12-20T03:18:03;99799.22;;;4.65;91.94
19114;BME280;9689;51.052;13.772;2023-12-20T03:23:05;99807.84;;;4.66;93.00
19114;BME280;9689;51.052;13.772;2023-12-20T03:28:06;99797.50;;;4.66;92.28
19114;BME280;9689;51.052;13.772;2023-12-20T03:33:07;99787.22;;;4.63;92.14
19114;BME280;9689;51.052;13.772;2023-12-20T03:38:09;99782.91;;;4.59;93.61
19114;BME280;9689;51.052;13.772;2023-12-20T03:43:10;99772.59;;;4.59;93.40
19114;BME280;9689;51.052;13.772;2023-12-20T03:48:11;99773.47;;;4.56;93.95
19114;BME280;9689;51.052;13.772;2023-12-20T03:53:13;99781.22;;;4.56;93.96
19114;BME280;9689;51.052;13.772;2023-12-20T03:58:14;99773.47;;;4.54;94.19
19114;BME280;9689;51.052;13.772;2023-12-20T04:03:14;99776.03;;;4.59;93.61
19114;BME280;9689;51.052;13.772;2023-12-20T04:08:17;99786.38;;;4.54;94.88
19114;BME280;9689;51.052;13.772;2023-12-20T04:13:17;99792.38;;;4.61;94.68
19114;BME280;9689;51.052;13.772;2023-12-20T04:18:18;99785.50;;;4.56;95.74
19114;BME280;9689;51.052;13.772;2023-12-20T04:23:20;99782.91;;;4.59;95.88
19114;BME280;9689;51.052;13.772;2023-12-20T04:28:21;99787.22;;;4.60;96.21
19114;BME280;9689;51.052;13.772;2023-12-20T04:33:22;99787.22;;;4.61;96.40
19114;BME280;9689;51.052;13.772;2023-12-20T04:38:24;99790.66;;;4.62;96.20
19114;BME280;9689;51.052;13.772;2023-12-20T04:43:25;99777.72;;;4.65;96.27
19114;BME280;9689;51.052;13.772;2023-12-20T04:48:26;99781.19;;;4.64;96.45
19114;BME280;9689;51.052;13.772;2023-12-20T04:53:28;99788.94;;;4.64;97.21
19114;BME280;9689;51.052;13.772;2023-12-20T04:58:29;99800.97;;;4.62;97.81
19114;BME280;9689;51.052;13.772;2023-12-20T05:03:29;99794.97;;;4.61;97.85
19114;BME280;9689;51.052;13.772;2023-12-20T05:08:31;99787.22;;;4.58;98.11
19114;BME280;9689;51.052;13.772;2023-12-20T05:13:32;99797.50;;;4.67;98.36
19114;BME280;9689;51.052;13.772;2023-12-20T05:18:47;99791.47;;;4.71;98.50
19114;BME280;9689;51.052;13.772;2023-12-20T05:23:50;99785.47;;;4.71;97.67
19114;BME280;9689;51.052;13.772;2023-12-20T05:28:50;99812.09;;;4.76;98.03
19114;BME280;9689;51.052;13.772;2023-12-20T05:33:52;99810.38;;;4.76;97.94
19114;BME280;9689;51.052;13.772;2023-12-20T05:38:54;99809.53;;;4.74;98.30
19114;BME280;9689;51.052;13.772;2023-12-20T05:43:55;99806.94;;;4.76;97.83
19114;BME280;9689;51.052;13.772;2023-12-20T05:48:57;99812.94;;;4.81;97.49
19114;BME280;9689;51.052;13.772;2023-12-20T05:53:59;99813.81;;;4.77;97.19
19114;BME280;9689;51.052;13.772;2023-12-20T05:59:00;99816.38;;;4.83;98.19
19114;BME280;9689;51.052;13.772;2023-12-20T06:04:00;99833.63;;;4.78;98.42
19114;BME280;9689;51.052;13.772;2023-12-20T06:09:04;99834.47;;;4.80;98.03
19114;BME280;9689;51.052;13.772;2023-12-20T06:14:05;99831.88;;;4.80;98.34
19114;BME280;9689;51.052;13.772;2023-12-20T06:19:05;99834.44;;;4.83;98.03
19114;BME280;9689;51.052;13.772;2023-12-20T06:24:08;99839.56;;;4.91;96.61
19114;BME280;9689;51.052;13.772;2023-12-20T06:29:09;99830.97;;;4.90;97.33
19114;BME280;9689;51.052;13.772;2023-12-20T06:34:09;99829.22;;;4.97;96.98
19114;BME280;9689;51.052;13.772;2023-12-20T06:39:12;99840.38;;;5.00;96.95
19114;BME280;9689;51.052;13.772;2023-12-20T06:44:13;99852.41;;;5.06;95.75
19114;BME280;9689;51.052;13.772;2023-12-20T06:49:14;99857.63;;;4.97;97.56
19114;BME280;9689;51.052;13.772;2023-12-20T06:54:16;99883.47;;;4.95;98.54
19114;BME280;9689;51.052;13.772;2023-12-20T06:59:17;99875.72;;;4.95;100.00
19114;BME280;9689;51.052;13.772;2023-12-20T07:04:18;99886.91;;;4.90;100.00
19114;BME280;9689;51.052;13.772;2023-12-20T07:09:23;99885.19;;;4.86;100.00
19114;BME280;9689;51.052;13.772;2023-12-20T07:14:23;99885.19;;;4.90;100.00
19114;BME280;9689;51.052;13.772;2023-12-20T07:19:24;99880.84;;;4.98;97.80
19114;BME280;9689;51.052;13.772;2023-12-20T07:24:26;99893.75;;;5.00;97.33
19114;BME280;9689;51.052;13.772;2023-12-20T07:29:27;99892.88;;;5.05;97.50
19114;BME280;9689;51.052;13.772;2023-12-20T07:34:28;99893.75;;;5.04;97.13
19114;BME280;9689;51.052;13.772;2023-12-20T07:39:30;99880.81;;;5.01;96.57
19114;BME280;9689;51.052;13.772;2023-12-20T07:44:33;99879.97;;;5.05;95.55
19114;BME280;9689;51.052;13.772;2023-12-20T07:49:35;99888.50;;;5.18;95.23
19114;BME280;9689;51.052;13.772;2023-12-20T07:54:37;99869.53;;;5.25;93.60
19114;BME280;9689;51.052;13.772;2023-12-20T07:59:38;99866.09;;;5.20;94.09
19114;BME280;9689;51.052;13.772;2023-12-20T08:04:39;99870.44;;;5.15;93.02
19114;BME280;9689;51.052;13.772;2023-12-20T08:09:42;99879.03;;;5.19;93.02
19114;BME280;9689;51.052;13.772;2023-12-20T08:14:43;99897.94;;;5.24;92.27
19114;BME280;9689;51.052;13.772;2023-12-20T08:19:44;99884.06;;;5.42;90.01
19114;BME280;9689;51.052;13.772;2023-12-20T08:24:46;99886.56;;;5.55;88.07
19114;BME280;9689;51.052;13.772;2023-12-20T08:29:47;99882.19;;;5.66;87.60
19114;BME280;9689;51.052;13.772;2023-12-20T08:34:49;99887.28;;;5.79;86.27
19114;BME280;9689;51.052;13.772;2023-12-20T08:39:51;99886.34;;;5.90;85.78
19114;BME280;9689;51.052;13.772;2023-12-20T08:44:52;99884.56;;;6.00;83.64
19114;BME280;9689;51.052;13.772;2023-12-20T08:49:53;99892.31;;;6.00;84.76
19114;BME280;9689;51.052;13.772;2023-12-20T08:54:57;99888.69;;;6.19;83.80
19114;BME280;9689;51.052;13.772;2023-12-20T08:59:58;99910.28;;;6.15;81.91
19114;BME280;9689;51.052;13.772;2023-12-20T09:04:59;99899.22;;;6.00;80.88
19114;BME280;9689;51.052;13.772;2023-12-20T09:10:01;99895.66;;;6.11;77.10
19114;BME280;9689;51.052;13.772;2023-12-20T09:15:02;99885.97;;;6.36;74.45
19114;BME280;9689;51.052;13.772;2023-12-20T09:20:04;99888.41;;;6.51;73.34
19114;BME280;9689;51.052;13.772;2023-12-20T09:25:09;99897.81;;;6.57;73.20
19114;BME280;9689;51.052;13.772;2023-12-20T09:30:11;99890.13;;;6.53;73.92
19114;BME280;9689;51.052;13.772;2023-12-20T09:35:24;99888.31;;;6.58;75.44
19114;BME280;9689;51.052;13.772;2023-12-20T09:40:27;99876.22;;;6.58;74.95
19114;BME280;9689;51.052;13.772;2023-12-20T09:45:30;99873.66;;;6.58;75.51
19114;BME280;9689;51.052;13.772;2023-12-20T09:50:31;99869.88;;;6.85;75.00
19114;BME280;9689;51.052;13.772;2023-12-20T09:55:34;99873.13;;;7.02;75.16
19114;BME280;9689;51.052;13.772;2023-12-20T10:00:36;99856.81;;;6.97;74.21
19114;BME280;9689;51.052;13.772;2023-12-20T10:05:39;99841.41;;;6.85;74.48
19114;BME280;9689;51.052;13.772;2023-12-20T10:10:44;99844.00;;;6.84;73.53
19114;BME280;9689;51.052;13.772;2023-12-20T10:15:49;99846.50;;;6.91;72.60
19114;BME280;9689;51.052;13.772;2023-12-20T10:20:50;99827.44;;;6.98;72.50
19114;BME280;9689;51.052;13.772;2023-12-20T10:25:57;99831.81;;;6.93;71.00
19114;BME280;9689;51.052;13.772;2023-12-20T10:30:58;99823.09;;;6.99;71.68
19114;BME280;9689;51.052;13.772;2023-12-20T10:35:59;99811.59;;;7.18;70.22
19114;BME280;9689;51.052;13.772;2023-12-20T10:41:03;99823.56;;;7.27;70.22
19114;BME280;9689;51.052;13.772;2023-12-20T10:46:06;99807.75;;;7.45;69.09
19114;BME280;9689;51.052;13.772;2023-12-20T10:51:09;99783.06;;;7.21;68.54
19114;BME280;9689;51.052;13.772;2023-12-20T10:56:16;99782.19;;;7.22;68.58
19114;BME280;9689;51.052;13.772;2023-12-20T11:01:18;99786.41;;;7.28;67.35
19114;BME280;9689;51.052;13.772;2023-12-20T11:06:33;99788.69;;;7.49;67.00
19114;BME280;9689;51.052;13.772;2023-12-20T11:11:44;99782.06;;;7.31;65.85
19114;BME280;9689;51.052;13.772;2023-12-20T11:16:47;99768.72;;;7.54;65.12
19114;BME280;9689;51.052;13.772;2023-12-20T11:21:54;99771.56;;;7.39;65.09
19114;BME280;9689;51.052;13.772;2023-12-20T11:26:56;99769.00;;;7.36;65.96
19114;BME280;9689;51.052;13.772;2023-12-20T11:31:57;99794.22;;;7.26;65.31
19114;BME280;9689;51.052;13.772;2023-12-20T11:36:58;99778.03;;;7.11;66.58
19114;BME280;9689;51.052;13.772;2023-12-20T11:42:05;99776.28;;;7.13;66.40
19114;BME280;9689;51.052;13.772;2023-12-20T11:47:07;99764.22;;;7.10;66.15
19114;BME280;9689;51.052;13.772;2023-12-20T11:52:12;99759.91;;;7.09;65.91
19114;BME280;9689;51.052;13.772;2023-12-20T11:57:14;99742.00;;;6.94;66.31
19114;BME280;9689;51.052;13.772;2023-12-20T12:02:15;99721.94;;;7.08;65.40
19114;BME280;9689;51.052;13.772;2023-12-20T12:07:15;99724.59;;;7.05;66.06
19114;BME280;9689;51.052;13.772;2023-12-20T12:12:19;99727.06;;;7.13;65.24
19114;BME280;9689;51.052;13.772;2023-12-20T12:17:20;99716.53;;;7.23;65.36
19114;BME280;9689;51.052;13.772;2023-12-20T12:22:20;99696.69;;;7.22;65.12
19114;BME280;9689;51.052;13.772;2023-12-20T12:27:28;99704.59;;;7.12;65.17
19114;BME280;9689;51.052;13.772;2023-12-20T12:32:29;99672.50;;;7.20;65.03
19114;BME280;9689;51.052;13.772;2023-12-20T12:37:30;99661.16;;;7.27;64.64
19114;BME280;9689;51.052;13.772;2023-12-20T12:42:32;99666.84;;;7.49;63.24
19114;BME280;9689;51.052;13.772;2023-12-20T12:47:33;99672.78;;;7.56;62.99
19114;BME280;9689;51.052;13.772;2023-12-20T12:52:34;99665.13;;;7.48;63.21
19114;BME280;9689;51.052;13.772;2023-12-20T12:57:37;99659.97;;;7.45;63.61
19114;BME280;9689;51.052;13.772;2023-12-20T13:02:38;99646.34;;;7.35;63.66
19114;BME280;9689;51.052;13.772;2023-12-20T13:07:41;99653.91;;;7.48;63.15
19114;BME280;9689;51.052;13.772;2023-12-20T13:12:46;99641.69;;;7.53;63.08
19114;BME280;9689;51.052;13.772;2023-12-20T13:17:47;99635.75;;;7.48;63.15
19114;BME280;9689;51.052;13.772;2023-12-20T13:22:48;99625.47;;;7.43;63.34
19114;BME280;9689;51.052;13.772;2023-12-20T13:27:51;99627.00;;;7.53;63.37
19114;BME280;9689;51.052;13.772;2023-12-20T13:32:51;99627.75;;;7.60;63.00
19114;BME280;9689;51.052;13.772;2023-12-20T13:37:52;99613.03;;;7.60;63.14
19114;BME280;9689;51.052;13.772;2023-12-20T13:42:54;99611.31;;;7.61;62.32
19114;BME280;9689;51.052;13.772;2023-12-20T13:47:55;99601.22;;;7.47;63.06
19114;BME280;9689;51.052;13.772;2023-12-20T13:52:56;99598.72;;;7.41;63.12
19114;BME280;9689;51.052;13.772;2023-12-20T13:57:58;99593.50;;;7.43;63.18
19114;BME280;9689;51.052;13.772;2023-12-20T14:03:00;99584.06;;;7.40;63.06
19114;BME280;9689;51.052;13.772;2023-12-20T14:08:01;99594.63;;;7.28;64.09
19114;BME280;9689;51.052;13.772;2023-12-20T14:13:04;99600.72;;;7.25;63.95
19114;BME280;9689;51.052;13.772;2023-12-20T14:18:05;99580.09;;;7.19;63.97
19114;BME280;9689;51.052;13.772;2023-12-20T14:23:08;99581.91;;;7.16;63.84
19114;BME280;9689;51.052;13.772;2023-12-20T14:28:11;99586.28;;;7.12;63.82
19114;BME280;9689;51.052;13.772;2023-12-20T14:33:14;99569.16;;;7.03;64.01
19114;BME280;9689;51.052;13.772;2023-12-20T14:38:14;99578.66;;;7.03;63.82
19114;BME280;9689;51.052;13.772;2023-12-20T14:43:16;99582.13;;;7.02;64.54
19114;BME280;9689;51.052;13.772;2023-12-20T14:48:17;99588.34;;;6.92;64.93
19114;BME280;9689;51.052;13.772;2023-12-20T14:53:18;99603.88;;;6.93;65.21
19114;BME280;9689;51.052;13.772;2023-12-20T14:58:23;99580.47;;;6.99;64.59
19114;BME280;9689;51.052;13.772;2023-12-20T15:03:24;99568.47;;;6.95;65.36
19114;BME280;9689;51.052;13.772;2023-12-20T15:08:25;99574.47;;;6.97;64.83
19114;BME280;9689;51.052;13.772;2023-12-20T15:13:27;99584.81;;;6.97;65.41
19114;BME280;9689;51.052;13.772;2023-12-20T15:18:28;99577.94;;;6.96;65.20
19114;BME280;9689;51.052;13.772;2023-12-20T15:23:30;99575.34;;;6.95;65.43
19114;BME280;9689;51.052;13.772;2023-12-20T15:28:33;99578.03;;;6.90;65.85
19114;BME280;9689;51.052;13.772;2023-12-20T15:33:33;99587.56;;;6.88;65.66
19114;BME280;9689;51.052;13.772;2023-12-20T15:38:34;99597.03;;;6.89;65.72
19114;BME280;9689;51.052;13.772;2023-12-20T15:43:36;99580.72;;;6.84;66.46
19114;BME280;9689;51.052;13.772;2023-12-20T15:48:37;99577.13;;;6.91;65.82
19114;BME280;9689;51.052;13.772;2023-12-20T15:53:38;99580.75;;;6.83;66.23
19114;BME280;9689;51.052;13.772;2023-12-20T15:58:40;99585.84;;;6.87;66.70
19114;BME280;9689;51.052;13.772;2023-12-20T16:03:41;99600.50;;;6.88;66.40
19114;BME280;9689;51.052;13.772;2023-12-20T16:08:52;99593.56;;;6.90;66.61
19114;BME280;9689;51.052;13.772;2023-12-20T16:13:54;99587.59;;;6.85;66.80
19114;BME280;9689;51.052;13.772;2023-12-20T16:18:55;99591.19;;;6.78;67.15
19114;BME280;9689;51.052;13.772;2023-12-20T16:23:57;99585.06;;;6.82;67.35
19114;BME280;9689;51.052;13.772;2023-12-20T16:29:00;99586.94;;;6.72;67.88
19114;BME280;9689;51.052;13.772;2023-12-20T16:34:00;99590.44;;;6.68;68.47
19114;BME280;9689;51.052;13.772;2023-12-20T16:39:06;99597.44;;;6.63;68.96
19114;BME280;9689;51.052;13.772;2023-12-20T16:44:08;99602.59;;;6.65;68.88
19114;BME280;9689;51.052;13.772;2023-12-20T16:49:09;99600.88;;;6.65;68.85
19114;BME280;9689;51.052;13.772;2023-12-20T16:54:10;99605.13;;;6.68;68.82
19114;BME280;9689;51.052;13.772;2023-12-20T16:59:12;99600.91;;;6.62;69.29
19114;BME280;9689;51.052;13.772;2023-12-20T17:04:13;99609.50;;;6.64;68.90
19114;BME280;9689;51.052;13.772;2023-12-20T17:09:14;99600.06;;;6.62;69.61
19114;BME280;9689;51.052;13.772;2023-12-20T17:14:16;99613.06;;;6.57;70.12
19114;BME280;9689;51.052;13.772;2023-12-20T17:19:17;99610.56;;;6.51;70.98
19114;BME280;9689;51.052;13.772;2023-12-20T17:24:19;99611.63;;;6.38;72.18
19114;BME280;9689;51.052;13.772;2023-12-20T17:29:21;99620.44;;;6.23;74.16
19114;BME280;9689;51.052;13.772;2023-12-20T17:34:23;99620.66;;;6.09;75.46
19114;BME280;9689;51.052;13.772;2023-12-20T17:39:24;99626.75;;;6.02;76.79
19114;BME280;9689;51.052;13.772;2023-12-20T17:44:26;99639.81;;;5.88;78.97
19114;BME280;9689;51.052;13.772;2023-12-20T17:49:27;99653.84;;;5.67;80.92
19114;BME280;9689;51.052;13.772;2023-12-20T17:54:30;99654.91;;;5.48;84.29
19114;BME280;9689;51.052;13.772;2023-12-20T17:59:32;99656.88;;;5.20;88.22
19114;BME280;9689;51.052;13.772;2023-12-20T18:04:33;99649.19;;;5.16;90.13
19114;BME280;9689;51.052;13.772;2023-12-20T18:09:34;99650.94;;;5.10;90.79
19114;BME280;9689;51.052;13.772;2023-12-20T18:14:36;99657.94;;;4.95;93.24
19114;BME280;9689;51.052;13.772;2023-12-20T18:19:37;99657.09;;;4.94;92.86
19114;BME280;9689;51.052;13.772;2023-12-20T18:24:39;99660.56;;;4.92;94.88
19114;BME280;9689;51.052;13.772;2023-12-20T18:29:42;99664.03;;;4.88;95.91
19114;BME280;9689;51.052;13.772;2023-12-20T18:34:43;99654.59;;;4.82;96.63
19114;BME280;9689;51.052;13.772;2023-12-20T18:39:44;99660.59;;;4.84;97.10
19114;BME280;9689;51.052;13.772;2023-12-20T18:44:47;99663.22;;;4.81;96.95
19114;BME280;9689;51.052;13.772;2023-12-20T18:49:48;99665.81;;;4.76;98.78
19114;BME280;9689;51.052;13.772;2023-12-20T18:54:49;99662.41;;;4.74;99.71
19114;BME280;9689;51.052;13.772;2023-12-20T18:59:51;99659.00;;;4.66;100.00
19114;BME280;9689;51.052;13.772;2023-12-20T19:04:52;99651.28;;;4.66;100.00
19114;BME280;9689;51.052;13.772;2023-12-20T19:09:53;99656.47;;;4.59;100.00
19114;BME280;9689;51.052;13.772;2023-12-20T19:14:55;99663.34;;;4.60;100.00
19114;BME280;9689;51.052;13.772;2023-12-20T19:19:56;99671.09;;;4.58;100.00
19114;BME280;9689;51.052;13.772;2023-12-20T19:24:57;99660.75;;;4.60;100.00
19114;BME280;9689;51.052;13.772;2023-12-20T19:30:01;99659.06;;;4.62;100.00
19114;BME280;9689;51.052;13.772;2023-12-20T19:35:02;99663.34;;;4.64;100.00
19114;BME280;9689;51.052;13.772;2023-12-20T19:40:04;99634.09;;;4.64;100.00
19114;BME280;9689;51.052;13.772;2023-12-20T19:45:07;99623.81;;;4.61;99.86
19114;BME280;9689;51.052;13.772;2023-12-20T19:50:10;99631.53;;;4.62;99.36
19114;BME280;9689;51.052;13.772;2023-12-20T19:55:11;99631.47;;;4.67;98.52
19114;BME280;9689;51.052;13.772;2023-12-20T20:00:13;99627.19;;;4.66;99.45
19114;BME280;9689;51.052;13.772;2023-12-20T20:05:14;99622.88;;;4.66;99.66
19114;BME280;9689;51.052;13.772;2023-12-20T20:10:16;99621.19;;;4.65;98.74
19114;BME280;9689;51.052;13.772;2023-12-20T20:15:18;99609.97;;;4.66;99.10
19114;BME280;9689;51.052;13.772;2023-12-20T20:20:18;99595.34;;;4.71;98.76
19114;BME280;9689;51.052;13.772;2023-12-20T20:25:19;99597.88;;;4.74;98.89
19114;BME280;9689;51.052;13.772;2023-12-20T20:30:21;99590.16;;;4.73;99.08
19114;BME280;9689;51.052;13.772;2023-12-20T20:35:22;99576.34;;;4.78;96.49
19114;BME280;9689;51.052;13.772;2023-12-20T20:40:23;99573.72;;;4.81;97.36
19114;BME280;9689;51.052;13.772;2023-12-20T20:45:25;99560.69;;;4.97;93.15
19114;BME280;9689;51.052;13.772;2023-12-20T20:50:26;99567.47;;;5.08;90.59
19114;BME280;9689;51.052;13.772;2023-12-20T20:55:27;99559.53;;;5.27;87.67
19114;BME280;9689;51.052;13.772;2023-12-20T21:00:29;99549.19;;;5.27;88.54
19114;BME280;9689;51.052;13.772;2023-12-20T21:05:31;99543.81;;;5.48;84.13
19114;BME280;9689;51.052;13.772;2023-12-20T21:10:31;99535.84;;;5.63;82.28
19114;BME280;9689;51.052;13.772;2023-12-20T21:15:34;99531.59;;;5.59;82.93
19114;BME280;9689;51.052;13.772;2023-12-20T21:20:35;99521.19;;;5.65;82.41
19114;BME280;9689;51.052;13.772;2023-12-20T21:25:36;99509.13;;;5.64;82.61
19114;BME280;9689;51.052;13.772;2023-12-20T21:30:39;99489.16;;;5.77;81.48
19114;BME280;9689;51.052;13.772;2023-12-20T21:35:39;99477.06;;;5.79;80.53
19114;BME280;9689;51.052;13.772;2023-12-20T21:40:40;99467.47;;;5.87;78.88
19114;BME280;9689;51.052;13.772;2023-12-20T21:45:42;99456.34;;;5.82;80.26
19114;BME280;9689;51.052;13.772;2023-12-20T21:50:43;99451.94;;;5.87;78.96
19114;BME280;9689;51.052;13.772;2023-12-20T21:55:44;99456.88;;;6.06;77.46
19114;BME280;9689;51.052;13.772;2023-12-20T22:00:46;99434.31;;;6.14;76.75
19114;BME280;9689;51.052;13.772;2023-12-20T22:05:47;99430.81;;;6.16;76.49
19114;BME280;9689;51.052;13.772;2023-12-20T22:10:48;99409.34;;;6.13;77.01
19114;BME280;9689;51.052;13.772;2023-12-20T22:15:51;99410.13;;;6.18;76.11
19114;BME280;9689;51.052;13.772;2023-12-20T22:20:52;99406.56;;;6.23;76.00
19114;BME280;9689;51.052;13.772;2023-12-20T22:25:53;99390.09;;;6.29;75.24
19114;BME280;9689;51.052;13.772;2023-12-20T22:30:56;99403.09;;;6.26;75.47
19114;BME280;9689;51.052;13.772;2023-12-20T22:35:56;99382.41;;;6.26;76.05
19114;BME280;9689;51.052;13.772;2023-12-20T22:40:57;99386.72;;;6.26;76.18
19114;BME280;9689;51.052;13.772;2023-12-20T22:45:59;99366.97;;;6.20;76.97
19114;BME280;9689;51.052;13.772;2023-12-20T22:51:02;99351.59;;;6.12;78.22
19114;BME280;9689;51.052;13.772;2023-12-20T22:56:04;99344.59;;;6.19;77.51
19114;BME280;9689;51.052;13.772;2023-12-20T23:01:07;99330.78;;;6.18;77.08
19114;BME280;9689;51.052;13.772;2023-12-20T23:06:08;99300.72;;;6.13;77.94
19114;BME280;9689;51.052;13.772;2023-12-20T23:11:08;99310.94;;;6.19;77.87
19114;BME280;9689;51.052;13.772;2023-12-20T23:16:11;99293.66;;;6.21;77.77
19114;BME280;9689;51.052;13.772;2023-12-20T23:21:13;99278.06;;;6.24;78.34
19114;BME280;9689;51.052;13.772;2023-12-20T23:26:14;99268.44;;;6.32;77.39
19114;BME280;9689;51.052;13.772;2023-12-20T23:31:23;99259.78;;;6.35;77.50
19114;BME280;9689;51.052;13.772;2023-12-20T23:36:24;99262.19;;;6.42;76.69
19114;BME280;9689;51.052;13.772;2023-12-20T23:41:24;99238.22;;;6.34;77.71
19114;BME280;9689;51.052;13.772;2023-12-20T23:46:29;99254.69;;;6.30;78.63
19114;BME280;9689;51.052;13.772;2023-12-20T23:51:30;99221.81;;;6.34;78.80
19114;BME280;9689;51.052;13.772;2023-12-20T23:56:30;99220.13;;;6.34;79.36
